sensor_id;sensor_type;location;lat;lon;timestamp;P1;durP1;ratioP1;P2;durP2;ratioP2
70675;SDS011;59069;52.242;20.900;2023-02-01T00:00:35;9.75;;;4.50;;
70675;SDS011;59069;52.242;20.900;2023-02-01T00:03:01;10.97;;;3.50;;
70675;SDS011;59069;52.242;20.900;2023-02-01T00:05:26;9.97;;;3.33;;
70675;SDS011;59069;52.242;20.900;2023-02-01T00:07:52;10.90;;;3.90;;
70675;SDS011;59069;52.242;20.900;2023-02-01T00:10:18;10.03;;;3.73;;
70675;SDS011;59069;52.242;20.900;2023-02-01T00:12:43;11.52;;;3.22;;
70675;SDS011;59069;52.242;20.900;2023-02-01T00:15:09;10.48;;;3.72;;
70675;SDS011;59069;52.242;20.900;2023-02-01T00:17:35;7.47;;;3.20;;
70675;SDS011;59069;52.242;20.900;2023-02-01T00:20:01;8.27;;;3.08;;
70675;SDS011;59069;52.242;20.900;2023-02-01T00:22:28;8.05;;;2.70;;
70675;SDS011;59069;52.242;20.900;2023-02-01T00:24:53;9.80;;;3.07;;
70675;SDS011;59069;52.242;20.900;2023-02-01T00:27:19;9.00;;;2.67;;
70675;SDS011;59069;52.242;20.900;2023-02-01T00:29:46;8.38;;;2.38;;
70675;SDS011;59069;52.242;20.900;2023-02-01T00:32:12;8.45;;;2.28;;
70675;SDS011;59069;52.242;20.900;2023-02-01T00:34:38;6.35;;;2.30;;
70675;SDS011;59069;52.242;20.900;2023-02-01T00:37:04;6.90;;;1.63;;
70675;SDS011;59069;52.242;20.900;2023-02-01T00:39:29;7.13;;;2.33;;
70675;SDS011;59069;52.242;20.900;2023-02-01T00:41:55;6.57;;;1.57;;
70675;SDS011;59069;52.242;20.900;2023-02-01T00:44:20;6.50;;;1.70;;
70675;SDS011;59069;52.242;20.900;2023-02-01T00:46:46;5.88;;;1.60;;
70675;SDS011;59069;52.242;20.900;2023-02-01T00:49:12;5.37;;;1.27;;
70675;SDS011;59069;52.242;20.900;2023-02-01T00:51:37;7.10;;;1.63;;
70675;SDS011;59069;52.242;20.900;2023-02-01T00:54:03;5.50;;;1.13;;
70675;SDS011;59069;52.242;20.900;2023-02-01T00:56:28;7.57;;;1.40;;
70675;SDS011;59069;52.242;20.900;2023-02-01T00:58:54;7.17;;;1.20;;
70675;SDS011;59069;52.242;20.900;2023-02-01T01:01:22;5.35;;;1.35;;
70675;SDS011;59069;52.242;20.900;2023-02-01T01:03:53;5.95;;;1.13;;
70675;SDS011;59069;52.242;20.900;2023-02-01T01:06:22;4.93;;;0.90;;
70675;SDS011;59069;52.242;20.900;2023-02-01T01:08:53;7.05;;;1.40;;
70675;SDS011;59069;52.242;20.900;2023-02-01T01:11:24;5.87;;;1.27;;
70675;SDS011;59069;52.242;20.900;2023-02-01T01:13:51;4.78;;;0.88;;
70675;SDS011;59069;52.242;20.900;2023-02-01T01:16:18;5.40;;;1.00;;
70675;SDS011;59069;52.242;20.900;2023-02-01T01:18:46;5.28;;;0.70;;
70675;SDS011;59069;52.242;20.900;2023-02-01T01:21:13;6.78;;;1.08;;
70675;SDS011;59069;52.242;20.900;2023-02-01T01:23:40;3.93;;;0.70;;
70675;SDS011;59069;52.242;20.900;2023-02-01T01:26:07;6.40;;;0.90;;
70675;SDS011;59069;52.242;20.900;2023-02-01T01:28:33;5.22;;;1.13;;
70675;SDS011;59069;52.242;20.900;2023-02-01T01:30:59;6.75;;;0.80;;
70675;SDS011;59069;52.242;20.900;2023-02-01T01:33:25;9.07;;;0.97;;
70675;SDS011;59069;52.242;20.900;2023-02-01T01:35:51;6.00;;;0.80;;
70675;SDS011;59069;52.242;20.900;2023-02-01T01:38:16;6.27;;;0.90;;
70675;SDS011;59069;52.242;20.900;2023-02-01T01:40:46;7.23;;;1.30;;
70675;SDS011;59069;52.242;20.900;2023-02-01T01:43:13;6.32;;;0.95;;
70675;SDS011;59069;52.242;20.900;2023-02-01T01:45:41;5.05;;;0.95;;
70675;SDS011;59069;52.242;20.900;2023-02-01T01:48:08;6.80;;;1.15;;
70675;SDS011;59069;52.242;20.900;2023-02-01T01:50:42;7.15;;;0.93;;
70675;SDS011;59069;52.242;20.900;2023-02-01T01:53:20;7.23;;;1.10;;
70675;SDS011;59069;52.242;20.900;2023-02-01T01:55:51;5.22;;;1.10;;
70675;SDS011;59069;52.242;20.900;2023-02-01T01:58:21;8.30;;;1.50;;
70675;SDS011;59069;52.242;20.900;2023-02-01T02:00:50;6.32;;;1.08;;
70675;SDS011;59069;52.242;20.900;2023-02-01T02:05:47;8.30;;;1.40;;
70675;SDS011;59069;52.242;20.900;2023-02-01T02:08:16;12.27;;;1.10;;
70675;SDS011;59069;52.242;20.900;2023-02-01T02:10:45;7.35;;;1.05;;
70675;SDS011;59069;52.242;20.900;2023-02-01T02:13:27;6.22;;;0.95;;
70675;SDS011;59069;52.242;20.900;2023-02-01T02:21:33;8.38;;;1.17;;
70675;SDS011;59069;52.242;20.900;2023-02-01T02:27:09;14.25;;;1.40;;
70675;SDS011;59069;52.242;20.900;2023-02-01T02:41:26;6.75;;;1.63;;
70675;SDS011;59069;52.242;20.900;2023-02-01T02:45:14;9.63;;;1.52;;
70675;SDS011;59069;52.242;20.900;2023-02-01T02:48:42;11.83;;;1.93;;
70675;SDS011;59069;52.242;20.900;2023-02-01T02:53:52;13.57;;;1.50;;
70675;SDS011;59069;52.242;20.900;2023-02-01T02:56:50;15.90;;;1.83;;
70675;SDS011;59069;52.242;20.900;2023-02-01T02:59:36;8.35;;;1.55;;
70675;SDS011;59069;52.242;20.900;2023-02-01T03:02:23;10.63;;;1.47;;
70675;SDS011;59069;52.242;20.900;2023-02-01T03:05:10;7.07;;;1.17;;
70675;SDS011;59069;52.242;20.900;2023-02-01T03:10:35;7.10;;;1.10;;
70675;SDS011;59069;52.242;20.900;2023-02-01T03:16:00;10.90;;;1.67;;
70675;SDS011;59069;52.242;20.900;2023-02-01T03:24:02;7.10;;;1.10;;
70675;SDS011;59069;52.242;20.900;2023-02-01T03:26:34;9.18;;;1.02;;
70675;SDS011;59069;52.242;20.900;2023-02-01T03:29:07;10.05;;;1.50;;
70675;SDS011;59069;52.242;20.900;2023-02-01T03:31:37;11.38;;;1.58;;
70675;SDS011;59069;52.242;20.900;2023-02-01T03:34:03;9.43;;;1.37;;
70675;SDS011;59069;52.242;20.900;2023-02-01T03:36:37;8.20;;;1.13;;
70675;SDS011;59069;52.242;20.900;2023-02-01T03:39:21;10.13;;;1.83;;
70675;SDS011;59069;52.242;20.900;2023-02-01T03:41:53;8.90;;;1.42;;
70675;SDS011;59069;52.242;20.900;2023-02-01T03:46:56;7.80;;;1.40;;
70675;SDS011;59069;52.242;20.900;2023-02-01T03:49:29;8.13;;;1.63;;
70675;SDS011;59069;52.242;20.900;2023-02-01T03:52:00;7.75;;;1.73;;
70675;SDS011;59069;52.242;20.900;2023-02-01T03:54:28;7.93;;;1.27;;
70675;SDS011;59069;52.242;20.900;2023-02-01T03:56:56;12.18;;;1.75;;
70675;SDS011;59069;52.242;20.900;2023-02-01T03:59:26;7.70;;;1.03;;
70675;SDS011;59069;52.242;20.900;2023-02-01T04:01:52;11.35;;;1.65;;
70675;SDS011;59069;52.242;20.900;2023-02-01T04:04:18;9.05;;;1.60;;
70675;SDS011;59069;52.242;20.900;2023-02-01T04:06:47;10.93;;;1.47;;
70675;SDS011;59069;52.242;20.900;2023-02-01T04:09:13;9.73;;;1.90;;
70675;SDS011;59069;52.242;20.900;2023-02-01T04:11:39;9.45;;;1.25;;
70675;SDS011;59069;52.242;20.900;2023-02-01T04:14:05;9.57;;;1.50;;
70675;SDS011;59069;52.242;20.900;2023-02-01T04:16:31;6.33;;;1.17;;
70675;SDS011;59069;52.242;20.900;2023-02-01T04:18:58;8.90;;;1.40;;
70675;SDS011;59069;52.242;20.900;2023-02-01T04:21:24;10.18;;;1.90;;
70675;SDS011;59069;52.242;20.900;2023-02-01T04:23:50;7.13;;;1.33;;
70675;SDS011;59069;52.242;20.900;2023-02-01T04:26:16;12.20;;;1.48;;
70675;SDS011;59069;52.242;20.900;2023-02-01T04:28:42;7.63;;;1.30;;
70675;SDS011;59069;52.242;20.900;2023-02-01T04:31:07;12.85;;;1.08;;
70675;SDS011;59069;52.242;20.900;2023-02-01T04:33:33;9.00;;;1.17;;
70675;SDS011;59069;52.242;20.900;2023-02-01T04:35:59;10.45;;;1.17;;
70675;SDS011;59069;52.242;20.900;2023-02-01T04:38:24;7.17;;;1.17;;
70675;SDS011;59069;52.242;20.900;2023-02-01T04:40:50;8.07;;;1.20;;
70675;SDS011;59069;52.242;20.900;2023-02-01T04:43:16;6.20;;;1.27;;
70675;SDS011;59069;52.242;20.900;2023-02-01T04:45:47;8.40;;;1.27;;
70675;SDS011;59069;52.242;20.900;2023-02-01T04:48:14;12.68;;;1.17;;
70675;SDS011;59069;52.242;20.900;2023-02-01T04:50:40;11.93;;;1.52;;
70675;SDS011;59069;52.242;20.900;2023-02-01T04:53:06;14.10;;;1.23;;
70675;SDS011;59069;52.242;20.900;2023-02-01T04:55:31;12.87;;;1.50;;
70675;SDS011;59069;52.242;20.900;2023-02-01T04:57:57;9.15;;;1.52;;
70675;SDS011;59069;52.242;20.900;2023-02-01T05:00:23;13.00;;;1.63;;
70675;SDS011;59069;52.242;20.900;2023-02-01T05:02:48;5.30;;;1.17;;
70675;SDS011;59069;52.242;20.900;2023-02-01T05:05:14;8.70;;;1.50;;
70675;SDS011;59069;52.242;20.900;2023-02-01T05:07:39;10.13;;;1.00;;
70675;SDS011;59069;52.242;20.900;2023-02-01T05:10:05;8.37;;;1.10;;
70675;SDS011;59069;52.242;20.900;2023-02-01T05:12:31;14.68;;;1.40;;
70675;SDS011;59069;52.242;20.900;2023-02-01T05:15:15;7.85;;;1.20;;
70675;SDS011;59069;52.242;20.900;2023-02-01T05:17:41;10.00;;;1.40;;
70675;SDS011;59069;52.242;20.900;2023-02-01T05:20:07;8.67;;;1.17;;
70675;SDS011;59069;52.242;20.900;2023-02-01T05:22:33;14.18;;;1.85;;
70675;SDS011;59069;52.242;20.900;2023-02-01T05:24:59;16.27;;;1.60;;
70675;SDS011;59069;52.242;20.900;2023-02-01T05:27:25;8.90;;;1.90;;
70675;SDS011;59069;52.242;20.900;2023-02-01T05:29:50;11.77;;;1.70;;
70675;SDS011;59069;52.242;20.900;2023-02-01T05:32:16;6.50;;;1.00;;
70675;SDS011;59069;52.242;20.900;2023-02-01T05:34:41;10.75;;;1.50;;
70675;SDS011;59069;52.242;20.900;2023-02-01T05:37:07;9.67;;;1.30;;
70675;SDS011;59069;52.242;20.900;2023-02-01T05:39:32;9.10;;;1.13;;
70675;SDS011;59069;52.242;20.900;2023-02-01T05:41:58;9.47;;;1.63;;
70675;SDS011;59069;52.242;20.900;2023-02-01T05:44:24;10.30;;;1.40;;
70675;SDS011;59069;52.242;20.900;2023-02-01T05:46:49;6.77;;;1.30;;
70675;SDS011;59069;52.242;20.900;2023-02-01T05:49:17;9.57;;;1.40;;
70675;SDS011;59069;52.242;20.900;2023-02-01T05:51:43;7.25;;;1.42;;
70675;SDS011;59069;52.242;20.900;2023-02-01T05:54:08;9.53;;;2.07;;
70675;SDS011;59069;52.242;20.900;2023-02-01T05:56:34;7.53;;;1.17;;
70675;SDS011;59069;52.242;20.900;2023-02-01T05:59:00;15.47;;;2.10;;
70675;SDS011;59069;52.242;20.900;2023-02-01T06:01:26;7.10;;;1.50;;
70675;SDS011;59069;52.242;20.900;2023-02-01T06:03:51;12.40;;;2.07;;
70675;SDS011;59069;52.242;20.900;2023-02-01T06:06:17;7.33;;;2.00;;
70675;SDS011;59069;52.242;20.900;2023-02-01T06:08:43;10.60;;;1.50;;
70675;SDS011;59069;52.242;20.900;2023-02-01T06:11:09;11.90;;;1.63;;
70675;SDS011;59069;52.242;20.900;2023-02-01T06:13:35;18.55;;;2.25;;
70675;SDS011;59069;52.242;20.900;2023-02-01T06:16:01;12.40;;;1.80;;
70675;SDS011;59069;52.242;20.900;2023-02-01T06:18:28;11.77;;;2.10;;
70675;SDS011;59069;52.242;20.900;2023-02-01T06:20:55;11.68;;;1.83;;
70675;SDS011;59069;52.242;20.900;2023-02-01T06:23:22;14.30;;;1.67;;
70675;SDS011;59069;52.242;20.900;2023-02-01T06:25:52;11.27;;;1.80;;
70675;SDS011;59069;52.242;20.900;2023-02-01T06:28:23;12.80;;;1.70;;
70675;SDS011;59069;52.242;20.900;2023-02-01T06:30:49;14.98;;;1.85;;
70675;SDS011;59069;52.242;20.900;2023-02-01T06:33:14;11.23;;;1.57;;
70675;SDS011;59069;52.242;20.900;2023-02-01T06:35:43;14.85;;;1.80;;
70675;SDS011;59069;52.242;20.900;2023-02-01T06:38:12;13.10;;;1.40;;
70675;SDS011;59069;52.242;20.900;2023-02-01T06:40:38;12.77;;;1.97;;
70675;SDS011;59069;52.242;20.900;2023-02-01T06:43:05;9.93;;;1.52;;
70675;SDS011;59069;52.242;20.900;2023-02-01T06:45:30;11.65;;;1.13;;
70675;SDS011;59069;52.242;20.900;2023-02-01T06:47:56;9.27;;;1.20;;
70675;SDS011;59069;52.242;20.900;2023-02-01T06:50:23;10.93;;;1.92;;
70675;SDS011;59069;52.242;20.900;2023-02-01T06:52:49;9.43;;;1.40;;
70675;SDS011;59069;52.242;20.900;2023-02-01T06:55:15;9.68;;;1.67;;
70675;SDS011;59069;52.242;20.900;2023-02-01T06:57:40;12.97;;;1.87;;
70675;SDS011;59069;52.242;20.900;2023-02-01T07:00:06;11.80;;;1.60;;
70675;SDS011;59069;52.242;20.900;2023-02-01T07:02:32;8.80;;;1.77;;
70675;SDS011;59069;52.242;20.900;2023-02-01T07:04:58;11.10;;;1.83;;
70675;SDS011;59069;52.242;20.900;2023-02-01T07:07:23;10.40;;;1.67;;
70675;SDS011;59069;52.242;20.900;2023-02-01T07:09:49;12.90;;;1.75;;
70675;SDS011;59069;52.242;20.900;2023-02-01T07:12:15;10.67;;;1.83;;
70675;SDS011;59069;52.242;20.900;2023-02-01T07:14:40;11.63;;;2.33;;
70675;SDS011;59069;52.242;20.900;2023-02-01T07:17:06;12.88;;;1.40;;
70675;SDS011;59069;52.242;20.900;2023-02-01T07:19:32;12.40;;;1.67;;
70675;SDS011;59069;52.242;20.900;2023-02-01T07:21:57;12.35;;;1.77;;
70675;SDS011;59069;52.242;20.900;2023-02-01T07:24:23;8.47;;;1.30;;
70675;SDS011;59069;52.242;20.900;2023-02-01T07:26:49;9.80;;;1.50;;
70675;SDS011;59069;52.242;20.900;2023-02-01T07:29:16;11.32;;;1.48;;
70675;SDS011;59069;52.242;20.900;2023-02-01T07:31:42;15.90;;;2.05;;
70675;SDS011;59069;52.242;20.900;2023-02-01T07:34:08;13.32;;;1.75;;
70675;SDS011;59069;52.242;20.900;2023-02-01T07:36:34;11.30;;;1.80;;
70675;SDS011;59069;52.242;20.900;2023-02-01T07:39:01;11.70;;;1.60;;
70675;SDS011;59069;52.242;20.900;2023-02-01T07:41:28;10.02;;;2.00;;
70675;SDS011;59069;52.242;20.900;2023-02-01T07:43:53;7.53;;;1.20;;
70675;SDS011;59069;52.242;20.900;2023-02-01T07:46:19;13.20;;;1.90;;
70675;SDS011;59069;52.242;20.900;2023-02-01T07:48:45;13.90;;;1.45;;
70675;SDS011;59069;52.242;20.900;2023-02-01T07:51:12;11.67;;;2.00;;
70675;SDS011;59069;52.242;20.900;2023-02-01T07:53:39;8.75;;;1.80;;
70675;SDS011;59069;52.242;20.900;2023-02-01T07:56:10;11.07;;;1.67;;
70675;SDS011;59069;52.242;20.900;2023-02-01T07:58:39;14.07;;;1.80;;
70675;SDS011;59069;52.242;20.900;2023-02-01T08:01:05;10.45;;;1.33;;
70675;SDS011;59069;52.242;20.900;2023-02-01T08:03:46;8.18;;;1.80;;
70675;SDS011;59069;52.242;20.900;2023-02-01T08:06:13;10.07;;;1.97;;
70675;SDS011;59069;52.242;20.900;2023-02-01T08:08:38;12.18;;;2.63;;
70675;SDS011;59069;52.242;20.900;2023-02-01T08:11:05;9.97;;;1.50;;
70675;SDS011;59069;52.242;20.900;2023-02-01T08:13:33;7.57;;;1.30;;
70675;SDS011;59069;52.242;20.900;2023-02-01T08:16:00;10.38;;;1.40;;
70675;SDS011;59069;52.242;20.900;2023-02-01T08:18:28;8.20;;;1.35;;
70675;SDS011;59069;52.242;20.900;2023-02-01T08:20:54;13.50;;;1.77;;
70675;SDS011;59069;52.242;20.900;2023-02-01T08:23:20;13.17;;;1.80;;
70675;SDS011;59069;52.242;20.900;2023-02-01T08:25:47;11.77;;;2.08;;
70675;SDS011;59069;52.242;20.900;2023-02-01T08:28:12;16.00;;;2.30;;
70675;SDS011;59069;52.242;20.900;2023-02-01T08:30:38;12.93;;;2.10;;
70675;SDS011;59069;52.242;20.900;2023-02-01T08:33:05;17.92;;;2.92;;
70675;SDS011;59069;52.242;20.900;2023-02-01T08:35:32;16.35;;;2.70;;
70675;SDS011;59069;52.242;20.900;2023-02-01T08:38:01;14.27;;;2.75;;
70675;SDS011;59069;52.242;20.900;2023-02-01T08:40:27;11.47;;;2.30;;
70675;SDS011;59069;52.242;20.900;2023-02-01T08:42:53;8.77;;;2.30;;
70675;SDS011;59069;52.242;20.900;2023-02-01T08:47:52;11.25;;;2.30;;
70675;SDS011;59069;52.242;20.900;2023-02-01T08:50:18;9.55;;;2.00;;
70675;SDS011;59069;52.242;20.900;2023-02-01T08:52:45;11.63;;;2.20;;
70675;SDS011;59069;52.242;20.900;2023-02-01T08:55:11;11.27;;;1.60;;
70675;SDS011;59069;52.242;20.900;2023-02-01T08:57:37;10.95;;;1.80;;
70675;SDS011;59069;52.242;20.900;2023-02-01T09:00:04;13.77;;;1.90;;
70675;SDS011;59069;52.242;20.900;2023-02-01T09:02:31;13.20;;;1.50;;
70675;SDS011;59069;52.242;20.900;2023-02-01T09:04:57;8.25;;;2.75;;
70675;SDS011;59069;52.242;20.900;2023-02-01T09:07:23;11.13;;;2.10;;
70675;SDS011;59069;52.242;20.900;2023-02-01T09:09:48;13.70;;;1.77;;
70675;SDS011;59069;52.242;20.900;2023-02-01T09:12:14;8.13;;;1.50;;
70675;SDS011;59069;52.242;20.900;2023-02-01T09:14:40;13.90;;;1.70;;
70675;SDS011;59069;52.242;20.900;2023-02-01T09:17:05;11.10;;;1.77;;
70675;SDS011;59069;52.242;20.900;2023-02-01T09:19:31;7.88;;;1.27;;
70675;SDS011;59069;52.242;20.900;2023-02-01T09:21:57;11.83;;;2.50;;
70675;SDS011;59069;52.242;20.900;2023-02-01T09:24:26;9.73;;;1.50;;
70675;SDS011;59069;52.242;20.900;2023-02-01T09:26:52;9.68;;;2.08;;
70675;SDS011;59069;52.242;20.900;2023-02-01T09:29:18;11.73;;;2.13;;
70675;SDS011;59069;52.242;20.900;2023-02-01T09:31:43;14.63;;;1.90;;
70675;SDS011;59069;52.242;20.900;2023-02-01T09:34:09;8.43;;;1.30;;
70675;SDS011;59069;52.242;20.900;2023-02-01T09:36:35;10.55;;;1.90;;
70675;SDS011;59069;52.242;20.900;2023-02-01T09:39:02;9.95;;;2.33;;
70675;SDS011;59069;52.242;20.900;2023-02-01T09:41:37;6.53;;;1.27;;
70675;SDS011;59069;52.242;20.900;2023-02-01T09:44:18;11.15;;;2.00;;
70675;SDS011;59069;52.242;20.900;2023-02-01T09:47:10;13.70;;;2.00;;
70675;SDS011;59069;52.242;20.900;2023-02-01T09:52:18;8.32;;;2.10;;
70675;SDS011;59069;52.242;20.900;2023-02-01T09:54:50;11.67;;;1.53;;
70675;SDS011;59069;52.242;20.900;2023-02-01T09:57:24;11.32;;;1.60;;
70675;SDS011;59069;52.242;20.900;2023-02-01T10:00:03;9.32;;;2.15;;
70675;SDS011;59069;52.242;20.900;2023-02-01T10:02:31;12.60;;;2.25;;
70675;SDS011;59069;52.242;20.900;2023-02-01T10:05:03;10.05;;;2.33;;
70675;SDS011;59069;52.242;20.900;2023-02-01T10:07:42;11.63;;;1.63;;
70675;SDS011;59069;52.242;20.900;2023-02-01T10:16:33;8.40;;;1.33;;
70675;SDS011;59069;52.242;20.900;2023-02-01T10:24:21;9.50;;;1.80;;
70675;SDS011;59069;52.242;20.900;2023-02-01T10:27:33;10.13;;;1.80;;
70675;SDS011;59069;52.242;20.900;2023-02-01T10:29:40;10.25;;;2.08;;
70675;SDS011;59069;52.242;20.900;2023-02-01T10:32:18;10.95;;;2.20;;
70675;SDS011;59069;52.242;20.900;2023-02-01T10:34:48;9.30;;;1.67;;
70675;SDS011;59069;52.242;20.900;2023-02-01T10:37:31;10.27;;;1.75;;
70675;SDS011;59069;52.242;20.900;2023-02-01T10:40:10;9.00;;;2.20;;
70675;SDS011;59069;52.242;20.900;2023-02-01T10:42:42;16.48;;;2.30;;
70675;SDS011;59069;52.242;20.900;2023-02-01T10:45:21;7.95;;;2.10;;
70675;SDS011;59069;52.242;20.900;2023-02-01T10:47:51;17.63;;;2.53;;
70675;SDS011;59069;52.242;20.900;2023-02-01T10:50:28;9.10;;;1.85;;
70675;SDS011;59069;52.242;20.900;2023-02-01T10:53:05;8.65;;;1.90;;
70675;SDS011;59069;52.242;20.900;2023-02-01T10:58:19;11.50;;;2.42;;
70675;SDS011;59069;52.242;20.900;2023-02-01T11:03:41;10.45;;;1.83;;
70675;SDS011;59069;52.242;20.900;2023-02-01T11:06:17;10.57;;;2.20;;
70675;SDS011;59069;52.242;20.900;2023-02-01T11:14:46;11.80;;;2.30;;
70675;SDS011;59069;52.242;20.900;2023-02-01T11:19:46;9.82;;;2.22;;
70675;SDS011;59069;52.242;20.900;2023-02-01T11:22:20;10.38;;;2.53;;
70675;SDS011;59069;52.242;20.900;2023-02-01T11:24:46;11.60;;;2.10;;
70675;SDS011;59069;52.242;20.900;2023-02-01T11:27:16;10.57;;;1.92;;
70675;SDS011;59069;52.242;20.900;2023-02-01T11:29:46;10.80;;;1.85;;
70675;SDS011;59069;52.242;20.900;2023-02-01T11:32:16;8.73;;;1.90;;
70675;SDS011;59069;52.242;20.900;2023-02-01T11:34:45;7.53;;;1.52;;
70675;SDS011;59069;52.242;20.900;2023-02-01T11:37:19;11.73;;;1.92;;
70675;SDS011;59069;52.242;20.900;2023-02-01T11:39:53;8.30;;;1.98;;
70675;SDS011;59069;52.242;20.900;2023-02-01T11:42:20;15.57;;;2.65;;
70675;SDS011;59069;52.242;20.900;2023-02-01T11:44:46;13.70;;;2.00;;
70675;SDS011;59069;52.242;20.900;2023-02-01T11:49:48;11.38;;;2.30;;
70675;SDS011;59069;52.242;20.900;2023-02-01T12:01:23;12.57;;;2.40;;
70675;SDS011;59069;52.242;20.900;2023-02-01T12:10:00;10.88;;;3.25;;
70675;SDS011;59069;52.242;20.900;2023-02-01T12:12:34;18.60;;;3.70;;
70675;SDS011;59069;52.242;20.900;2023-02-01T12:15:29;8.95;;;2.35;;
70675;SDS011;59069;52.242;20.900;2023-02-01T12:18:14;12.50;;;3.85;;
70675;SDS011;59069;52.242;20.900;2023-02-01T12:24:00;12.52;;;2.85;;
70675;SDS011;59069;52.242;20.900;2023-02-01T12:32:07;14.85;;;2.65;;
70675;SDS011;59069;52.242;20.900;2023-02-01T12:35:09;12.73;;;3.13;;
70675;SDS011;59069;52.242;20.900;2023-02-01T12:40:43;12.97;;;2.90;;
70675;SDS011;59069;52.242;20.900;2023-02-01T12:46:05;15.18;;;3.22;;
70675;SDS011;59069;52.242;20.900;2023-02-01T12:48:40;14.27;;;3.08;;
70675;SDS011;59069;52.242;20.900;2023-02-01T12:51:21;17.63;;;3.40;;
70675;SDS011;59069;52.242;20.900;2023-02-01T12:53:52;12.07;;;3.20;;
70675;SDS011;59069;52.242;20.900;2023-02-01T12:56:44;13.88;;;2.35;;
70675;SDS011;59069;52.242;20.900;2023-02-01T13:04:27;13.90;;;3.20;;
70675;SDS011;59069;52.242;20.900;2023-02-01T13:09:41;10.07;;;2.72;;
70675;SDS011;59069;52.242;20.900;2023-02-01T13:12:26;13.25;;;2.97;;
70675;SDS011;59069;52.242;20.900;2023-02-01T13:15:02;13.27;;;2.72;;
70675;SDS011;59069;52.242;20.900;2023-02-01T13:17:39;13.70;;;3.15;;
70675;SDS011;59069;52.242;20.900;2023-02-01T13:20:23;10.43;;;2.40;;
70675;SDS011;59069;52.242;20.900;2023-02-01T13:26:01;14.00;;;2.50;;
70675;SDS011;59069;52.242;20.900;2023-02-01T13:31:21;10.13;;;2.05;;
70675;SDS011;59069;52.242;20.900;2023-02-01T13:42:49;11.52;;;2.38;;
70675;SDS011;59069;52.242;20.900;2023-02-01T13:45:19;10.98;;;1.67;;
70675;SDS011;59069;52.242;20.900;2023-02-01T13:47:49;12.33;;;2.63;;
70675;SDS011;59069;52.242;20.900;2023-02-01T13:50:36;8.93;;;2.47;;
70675;SDS011;59069;52.242;20.900;2023-02-01T13:55:38;10.73;;;2.13;;
70675;SDS011;59069;52.242;20.900;2023-02-01T14:11:40;12.45;;;2.47;;
70675;SDS011;59069;52.242;20.900;2023-02-01T14:16:41;12.60;;;2.60;;
70675;SDS011;59069;52.242;20.900;2023-02-01T14:19:08;12.40;;;2.67;;
70675;SDS011;59069;52.242;20.900;2023-02-01T14:21:50;12.70;;;2.35;;
70675;SDS011;59069;52.242;20.900;2023-02-01T14:24:36;11.13;;;2.65;;
70675;SDS011;59069;52.242;20.900;2023-02-01T14:29:37;8.73;;;2.55;;
70675;SDS011;59069;52.242;20.900;2023-02-01T14:32:06;11.20;;;2.55;;
70675;SDS011;59069;52.242;20.900;2023-02-01T15:07:04;8.95;;;1.83;;
70675;SDS011;59069;52.242;20.900;2023-02-01T15:12:05;8.52;;;2.20;;
70675;SDS011;59069;52.242;20.900;2023-02-01T15:19:58;8.90;;;2.63;;
70675;SDS011;59069;52.242;20.900;2023-02-01T15:22:26;9.80;;;2.55;;
70675;SDS011;59069;52.242;20.900;2023-02-01T15:24:54;8.13;;;2.33;;
70675;SDS011;59069;52.242;20.900;2023-02-01T15:27:21;10.00;;;2.60;;
70675;SDS011;59069;52.242;20.900;2023-02-01T15:29:47;11.27;;;2.80;;
70675;SDS011;59069;52.242;20.900;2023-02-01T15:32:32;10.73;;;2.88;;
70675;SDS011;59069;52.242;20.900;2023-02-01T15:35:00;10.90;;;3.20;;
70675;SDS011;59069;52.242;20.900;2023-02-01T15:37:27;9.90;;;2.90;;
70675;SDS011;59069;52.242;20.900;2023-02-01T15:42:32;11.30;;;3.13;;
70675;SDS011;59069;52.242;20.900;2023-02-01T15:44:59;10.57;;;3.33;;
70675;SDS011;59069;52.242;20.900;2023-02-01T15:47:26;9.82;;;2.90;;
70675;SDS011;59069;52.242;20.900;2023-02-01T15:49:57;12.33;;;3.23;;
70675;SDS011;59069;52.242;20.900;2023-02-01T15:55:03;11.02;;;3.53;;
70675;SDS011;59069;52.242;20.900;2023-02-01T15:57:33;9.57;;;3.00;;
70675;SDS011;59069;52.242;20.900;2023-02-01T16:00:07;10.90;;;3.38;;
70675;SDS011;59069;52.242;20.900;2023-02-01T16:02:56;8.40;;;3.20;;
70675;SDS011;59069;52.242;20.900;2023-02-01T16:13:34;11.02;;;3.40;;
70675;SDS011;59069;52.242;20.900;2023-02-01T16:16:00;8.50;;;3.20;;
70675;SDS011;59069;52.242;20.900;2023-02-01T16:18:26;10.30;;;3.60;;
70675;SDS011;59069;52.242;20.900;2023-02-01T16:20:52;8.73;;;2.97;;
70675;SDS011;59069;52.242;20.900;2023-02-01T16:23:18;9.50;;;3.50;;
70675;SDS011;59069;52.242;20.900;2023-02-01T16:25:45;13.68;;;3.70;;
70675;SDS011;59069;52.242;20.900;2023-02-01T16:28:11;11.18;;;3.85;;
70675;SDS011;59069;52.242;20.900;2023-02-01T16:30:37;11.67;;;3.73;;
70675;SDS011;59069;52.242;20.900;2023-02-01T16:33:03;11.63;;;4.10;;
70675;SDS011;59069;52.242;20.900;2023-02-01T16:35:36;10.47;;;3.67;;
70675;SDS011;59069;52.242;20.900;2023-02-01T16:38:03;10.40;;;3.70;;
70675;SDS011;59069;52.242;20.900;2023-02-01T16:40:40;12.60;;;3.63;;
70675;SDS011;59069;52.242;20.900;2023-02-01T16:43:11;9.70;;;3.60;;
70675;SDS011;59069;52.242;20.900;2023-02-01T16:45:38;13.80;;;3.88;;
70675;SDS011;59069;52.242;20.900;2023-02-01T16:48:05;10.90;;;3.70;;
70675;SDS011;59069;52.242;20.900;2023-02-01T16:50:31;10.43;;;3.80;;
70675;SDS011;59069;52.242;20.900;2023-02-01T16:52:58;12.90;;;3.55;;
70675;SDS011;59069;52.242;20.900;2023-02-01T16:55:24;8.13;;;3.22;;
70675;SDS011;59069;52.242;20.900;2023-02-01T16:57:50;12.27;;;4.03;;
70675;SDS011;59069;52.242;20.900;2023-02-01T17:00:16;10.40;;;3.92;;
70675;SDS011;59069;52.242;20.900;2023-02-01T17:02:42;10.95;;;4.10;;
70675;SDS011;59069;52.242;20.900;2023-02-01T17:05:10;14.90;;;4.23;;
70675;SDS011;59069;52.242;20.900;2023-02-01T17:07:36;11.25;;;4.65;;
70675;SDS011;59069;52.242;20.900;2023-02-01T17:10:04;11.32;;;4.30;;
70675;SDS011;59069;52.242;20.900;2023-02-01T17:12:31;14.15;;;4.15;;
70675;SDS011;59069;52.242;20.900;2023-02-01T17:14:58;10.67;;;4.57;;
70675;SDS011;59069;52.242;20.900;2023-02-01T17:17:35;12.63;;;4.85;;
70675;SDS011;59069;52.242;20.900;2023-02-01T17:20:02;15.13;;;5.15;;
70675;SDS011;59069;52.242;20.900;2023-02-01T17:22:28;13.55;;;3.97;;
70675;SDS011;59069;52.242;20.900;2023-02-01T17:24:54;9.93;;;4.00;;
70675;SDS011;59069;52.242;20.900;2023-02-01T17:27:20;12.32;;;4.00;;
70675;SDS011;59069;52.242;20.900;2023-02-01T17:29:45;10.10;;;3.63;;
70675;SDS011;59069;52.242;20.900;2023-02-01T17:32:19;10.55;;;3.90;;
70675;SDS011;59069;52.242;20.900;2023-02-01T17:34:49;13.95;;;3.47;;
70675;SDS011;59069;52.242;20.900;2023-02-01T17:37:27;14.17;;;4.30;;
70675;SDS011;59069;52.242;20.900;2023-02-01T17:39:55;11.95;;;3.97;;
70675;SDS011;59069;52.242;20.900;2023-02-01T17:42:21;18.90;;;4.25;;
70675;SDS011;59069;52.242;20.900;2023-02-01T17:44:53;16.00;;;4.50;;
70675;SDS011;59069;52.242;20.900;2023-02-01T17:47:21;12.93;;;3.63;;
70675;SDS011;59069;52.242;20.900;2023-02-01T17:49:47;13.73;;;4.20;;
70675;SDS011;59069;52.242;20.900;2023-02-01T17:52:19;13.18;;;4.32;;
70675;SDS011;59069;52.242;20.900;2023-02-01T17:54:45;11.77;;;4.27;;
70675;SDS011;59069;52.242;20.900;2023-02-01T17:57:14;14.20;;;4.80;;
70675;SDS011;59069;52.242;20.900;2023-02-01T17:59:41;12.43;;;4.30;;